Time;durP1;ratioP1;P1;durP2;ratioP2;P2;SDS_P1;SDS_P2;PMS_P1;PMS_P2;Temp;Humidity;BMP_temperature;BMP_pressure;BME280_temperature;BME280_humidity;BME280_pressure;Samples;Min_cycle;Max_cycle;Signal;HPM_P1;HPM_P2
2022/07/10 00:00:17;;;;;;;7.93;2.45;;;;;;;20.42;73.98;102581.72;7391426;19;20011;-47
2022/07/10 00:02:46;;;;;;;5.25;1.83;;;;;;;20.27;76.41;102584.31;7393986;19;20010;-48
2022/07/10 00:05:15;;;;;;;4.70;1.50;;;;;;;20.25;77.12;102580.91;7392421;19;20018;-46
2022/07/10 00:07:47;;;;;;;7.47;2.95;;;;;;;20.52;75.55;102588.25;7396094;19;20022;-48
2022/07/10 00:10:16;;;;;;;6.65;1.70;;;;;;;20.55;76.08;102588.91;7394031;19;20491;-45
2022/07/10 00:12:46;;;;;;;6.53;2.03;;;;;;;20.54;76.22;102595.19;7394777;19;20018;-46
2022/07/10 00:15:15;;;;;;;7.53;1.98;;;;;;;20.90;74.79;102590.47;7392191;19;20019;-48
2022/07/10 00:17:45;;;;;;;6.00;1.65;;;;;;;20.87;73.89;102591.50;7394358;19;20018;-45
2022/07/10 00:20:15;;;;;;;6.13;1.73;;;;;;;21.04;73.17;102586.97;7393228;19;20025;-48
2022/07/10 00:22:47;;;;;;;8.15;1.75;;;;;;;21.02;73.98;102597.75;7394445;19;20118;-47
2022/07/10 00:25:16;;;;;;;4.65;1.70;;;;;;;20.36;77.55;102582.94;7390696;19;20018;-48
2022/07/10 00:27:45;;;;;;;6.88;2.22;;;;;;;20.74;75.32;102582.53;7392278;19;20007;-49
2022/07/10 00:30:14;;;;;;;7.18;1.85;;;;;;;20.81;76.02;102581.22;7392932;19;20479;-50
2022/07/10 00:32:43;;;;;;;6.05;1.80;;;;;;;21.00;75.28;102585.44;7393914;19;20018;-48
2022/07/10 00:35:12;;;;;;;4.97;1.75;;;;;;;20.87;74.16;102593.31;7392160;19;20025;-49
2022/07/10 00:37:41;;;;;;;13.10;2.38;;;;;;;20.85;75.04;102584.59;7391456;19;20018;-50
2022/07/10 00:40:13;;;;;;;8.23;2.10;;;;;;;20.95;74.16;102583.06;7396833;19;20010;-50
2022/07/10 00:42:41;;;;;;;7.50;2.10;;;;;;;20.91;74.22;102587.72;7393762;19;20015;-49
2022/07/10 00:45:11;;;;;;;4.85;1.70;;;;;;;21.08;73.16;102573.38;7391745;19;20030;-46
2022/07/10 00:47:40;;;;;;;9.45;2.35;;;;;;;21.15;73.55;102576.53;7393215;19;20022;-52
2022/07/10 00:50:12;;;;;;;6.75;2.47;;;;;;;21.29;72.22;102573.03;7392450;19;20006;-53
2022/07/10 00:52:41;;;;;;;4.80;1.73;;;;;;;21.31;71.25;102571.09;7393295;19;20539;-49
2022/07/10 00:55:13;;;;;;;6.90;2.25;;;;;;;21.33;71.34;102571.00;7393982;19;20010;-54
2022/07/10 00:57:43;;;;;;;5.40;2.07;;;;;;;21.31;70.62;102567.59;7390874;19;20022;-52
2022/07/10 01:00:12;;;;;;;8.13;1.85;;;;;;;21.33;71.53;102573.66;7392305;19;20015;-54
2022/07/10 01:02:44;;;;;;;8.38;2.00;;;;;;;21.19;70.85;102566.50;7392992;19;20015;-45
2022/07/10 01:05:13;;;;;;;9.52;2.67;;;;;;;20.49;74.78;102567.09;7390929;19;20018;-48
2022/07/10 01:07:42;;;;;;;5.38;2.05;;;;;;;19.97;79.66;102558.53;7391931;19;20010;-50
2022/07/10 01:10:14;;;;;;;6.07;1.80;;;;;;;20.38;76.77;102552.63;7392332;19;20022;-48
2022/07/10 01:12:43;;;;;;;5.88;1.67;;;;;;;20.50;76.09;102556.41;7391504;19;20022;-47
2022/07/10 01:15:12;;;;;;;5.32;1.83;;;;;;;20.41;76.02;102556.91;7391072;19;20026;-48
2022/07/10 01:17:41;;;;;;;5.38;1.75;;;;;;;20.50;76.13;102561.72;7390153;19;20018;-48
2022/07/10 01:20:12;;;;;;;8.27;1.85;;;;;;;20.54;75.68;102557.06;7391062;19;20018;-46
2022/07/10 01:22:43;;;;;;;33.58;2.88;;;;;;;20.47;77.06;102545.06;7392061;19;20010;-48
2022/07/10 01:25:13;;;;;;;5.90;2.10;;;;;;;20.48;77.77;102550.28;7391085;19;20003;-46
2022/07/10 01:27:42;;;;;;;138.82;11.65;;;;;;;20.07;79.49;102544.69;7390359;19;20367;-46
2022/07/10 01:30:12;;;;;;;8.68;2.20;;;;;;;19.76;81.19;102536.63;7391364;19;20010;-46
2022/07/10 01:32:42;;;;;;;6.82;1.92;;;;;;;20.09;78.90;102529.47;7391613;19;20018;-52
2022/07/10 01:35:12;;;;;;;5.80;1.85;;;;;;;20.22;77.86;102536.69;7392033;19;20356;-58
2022/07/10 01:37:44;;;;;;;5.75;1.63;;;;;;;19.80;80.03;102532.00;7394479;19;20471;-56
2022/07/10 01:40:13;;;;;;;4.65;1.70;;;;;;;19.97;79.61;102528.38;7391898;19;20052;-52
2022/07/10 01:42:43;;;;;;;8.57;2.22;;;;;;;19.87;79.82;102533.38;7397757;19;20381;-56
2022/07/10 01:45:13;;;;;;;8.15;2.13;;;;;;;20.28;77.33;102530.16;7391131;19;20022;-59
2022/07/10 01:47:43;;;;;;;6.18;2.05;;;;;;;20.45;76.76;102533.66;7393413;19;20017;-56
2022/07/10 01:50:12;;;;;;;7.50;1.88;;;;;;;20.48;75.11;102528.13;7393359;19;20018;-57
2022/07/10 01:52:44;;;;;;;5.93;2.08;;;;;;;20.50;74.47;102527.09;7393052;19;20006;-51
2022/07/10 01:55:13;;;;;;;5.55;1.90;;;;;;;20.19;75.55;102526.22;7390900;19;20018;-52
2022/07/10 01:57:42;;;;;;;4.57;1.50;;;;;;;20.49;75.61;102528.03;7390054;19;20082;-56
2022/07/10 02:00:12;;;;;;;3.67;1.65;;;;;;;20.52;74.47;102525.19;7396069;19;20007;-52
2022/07/10 02:04:40;;;;;;;6.50;1.60;;;;;;;20.56;74.45;102534.72;7391408;19;20037;-52
2022/07/10 02:05:27;;;;;;;8.20;2.25;;;;;;;20.28;75.99;102529.31;7388949;19;20118;-55
2022/07/10 02:07:59;;;;;;;7.10;2.05;;;;;;;20.40;75.01;102525.91;7391406;19;20519;-54
2022/07/10 02:10:28;;;;;;;7.28;1.80;;;;;;;20.54;74.21;102527.75;7390394;19;20015;-57
2022/07/10 02:12:57;;;;;;;7.43;2.13;;;;;;;20.47;74.06;102521.94;7391419;19;20014;-57
2022/07/10 02:15:26;;;;;;;4.90;1.98;;;;;;;20.40;75.40;102525.91;7392405;19;20022;-56
2022/07/10 02:17:55;;;;;;;7.00;2.70;;;;;;;20.40;74.72;102521.44;7393237;19;20026;-56
2022/07/10 02:20:24;;;;;;;5.93;1.88;;;;;;;20.42;74.88;102521.34;7389980;19;20010;-52
2022/07/10 02:22:53;;;;;;;6.78;1.85;;;;;;;20.08;76.17;102520.66;7395776;19;20814;-58
2022/07/10 02:25:24;;;;;;;4.85;1.67;;;;;;;20.15;75.65;102518.50;7394194;19;20010;-57
2022/07/10 02:27:53;;;;;;;5.20;2.20;;;;;;;20.37;74.85;102521.63;7393064;19;20026;-56
2022/07/10 02:30:22;;;;;;;6.90;1.98;;;;;;;20.50;74.13;102515.56;7391846;19;20030;-55
2022/07/10 02:32:51;;;;;;;5.47;1.60;;;;;;;20.62;74.31;102504.19;7392942;19;20018;-57
2022/07/10 02:35:20;;;;;;;5.53;1.60;;;;;;;20.61;74.16;102507.78;7253127;19;2709829;-52
2022/07/10 02:37:48;;;;;;;9.00;2.05;;;;;;;20.64;74.13;102488.13;7393162;19;20278;-52
2022/07/10 02:40:17;;;;;;;6.15;1.88;;;;;;;20.27;76.67;102492.97;7394650;19;20022;-56
2022/07/10 02:42:49;;;;;;;7.07;2.22;;;;;;;20.29;78.44;102489.28;7392804;19;20010;-54
2022/07/10 02:45:18;;;;;;;6.90;1.85;;;;;;;20.36;76.99;102482.63;7390883;19;20387;-56
2022/07/10 02:47:46;;;;;;;6.18;1.90;;;;;;;20.34;79.40;102484.53;7391411;19;20021;-55
2022/07/10 02:50:15;;;;;;;4.65;1.80;;;;;;;20.59;78.38;102485.75;7389997;19;20010;-57
2022/07/10 02:52:44;;;;;;;5.85;2.13;;;;;;;20.44;77.17;102484.00;7391158;19;20349;-52
2022/07/10 02:55:13;;;;;;;8.25;2.50;;;;;;;20.53;77.54;102492.28;7390722;19;20436;-52
2022/07/10 02:57:42;;;;;;;7.75;2.08;;;;;;;20.36;78.40;102492.41;7392475;19;20022;-54
2022/07/10 03:00:15;;;;;;;11.38;2.63;;;;;;;20.54;78.42;102485.16;7390513;19;20451;-54
2022/07/10 03:02:43;;;;;;;7.13;2.10;;;;;;;20.46;79.66;102498.06;7391999;19;20486;-53
2022/07/10 03:05:12;;;;;;;7.30;2.58;;;;;;;20.51;78.68;102507.47;7390275;19;20230;-53
2022/07/10 03:07:41;;;;;;;5.57;2.28;;;;;;;20.40;79.70;102501.94;7391915;19;20003;-53
2022/07/10 03:10:11;;;;;;;6.63;2.22;;;;;;;20.28;80.84;102500.88;7390351;19;20026;-54
2022/07/10 03:12:40;;;;;;;5.82;1.98;;;;;;;20.49;81.31;102500.53;7395618;19;20098;-57
2022/07/10 03:15:10;;;;;;;6.43;2.22;;;;;;;20.56;79.56;102509.88;7392047;19;20030;-58
2022/07/10 03:17:42;;;;;;;4.80;1.88;;;;;;;20.34;80.62;102504.97;7391194;19;20029;-57
2022/07/10 03:20:12;;;;;;;6.18;1.70;;;;;;;19.94;82.14;102505.47;7393326;19;20022;-50
2022/07/10 03:22:41;;;;;;;10.57;2.25;;;;;;;20.20;81.60;102505.78;7393787;19;20025;-51
2022/07/10 03:25:11;;;;;;;6.45;2.08;;;;;;;20.04;82.55;102508.47;7393690;19;20054;-53
2022/07/10 03:27:40;;;;;;;5.57;2.00;;;;;;;19.99;83.21;102503.41;7397094;19;20527;-50
2022/07/10 03:30:11;;;;;;;7.03;2.10;;;;;;;19.86;83.99;102505.91;7394321;19;20022;-52
2022/07/10 03:32:42;;;;;;;5.93;2.15;;;;;;;20.18;82.06;102505.00;7393450;19;20018;-54
2022/07/10 03:35:11;;;;;;;7.20;1.95;;;;;;;19.87;84.32;102499.66;7397250;19;20399;-53
2022/07/10 03:37:40;;;;;;;7.35;2.35;;;;;;;19.85;84.29;102501.53;7400600;19;20374;-53
2022/07/10 03:40:10;;;;;;;4.53;1.50;;;;;;;19.87;83.30;102496.13;7400580;19;20014;-54
2022/07/10 03:42:39;;;;;;;5.85;1.88;;;;;;;19.95;83.43;102490.38;7401741;19;20014;-50
2022/07/10 03:45:09;;;;;;;7.18;2.22;;;;;;;19.75;84.10;102488.81;7403951;19;20029;-51
2022/07/10 03:47:37;;;;;;;7.50;2.03;;;;;;;20.14;82.96;102492.81;7401094;19;20018;-54
2022/07/10 03:50:10;;;;;;;5.60;1.83;;;;;;;20.25;81.58;102497.53;7400220;19;20017;-55
2022/07/10 03:52:39;;;;;;;7.15;2.13;;;;;;;19.92;84.31;102491.41;7401274;19;20026;-52
2022/07/10 03:55:09;;;;;;;6.07;1.70;;;;;;;20.26;82.90;102489.47;7399087;19;20018;-54
2022/07/10 04:00:19;;;;;;;7.90;2.03;;;;;;;20.03;83.82;102490.78;7402740;19;20011;-51
2022/07/10 04:02:48;;;;;;;5.57;1.90;;;;;;;20.24;82.41;102491.34;7406611;19;20011;-54
2022/07/10 04:05:20;;;;;;;6.68;1.90;;;;;;;19.80;85.45;102492.97;7400674;19;20040;-55
2022/07/10 04:07:49;;;;;;;5.15;2.03;;;;;;;19.91;85.48;102483.53;7401505;19;20098;-52
2022/07/10 04:10:18;;;;;;;8.20;2.13;;;;;;;20.02;85.04;102481.09;7400173;19;20021;-51
2022/07/10 04:12:47;;;;;;;6.05;2.15;;;;;;;19.26;90.26;102482.63;7400691;19;20026;-53
2022/07/10 04:15:16;;;;;;;6.82;2.00;;;;;;;19.50;89.13;102477.75;7398982;19;20359;-52
2022/07/10 04:17:45;;;;;;;11.68;2.22;;;;;;;19.81;87.28;102475.19;7402929;19;20006;-52
2022/07/10 04:20:14;;;;;;;5.38;2.00;;;;;;;20.04;86.65;102476.53;7398863;19;20030;-51
2022/07/10 04:22:46;;;;;;;5.72;2.03;;;;;;;19.99;85.79;102486.59;7399936;19;20025;-55
2022/07/10 04:25:15;;;;;;;6.03;1.88;;;;;;;19.96;85.51;102489.41;7400328;19;20118;-52
2022/07/10 04:27:44;;;;;;;7.28;1.90;;;;;;;19.88;86.29;102488.06;7399917;19;20118;-56
2022/07/10 04:30:13;;;;;;;7.43;2.00;;;;;;;19.82;87.21;102485.75;7399880;19;20014;-53
2022/07/10 04:32:42;;;;;;;9.55;2.00;;;;;;;20.00;85.19;102489.19;7400439;19;20025;-53
2022/07/10 04:35:11;;;;;;;6.75;1.92;;;;;;;20.19;83.94;102488.09;7402098;19;20042;-55
2022/07/10 04:37:40;;;;;;;7.43;1.92;;;;;;;20.02;84.45;102481.09;7399435;19;20021;-52
2022/07/10 04:40:13;;;;;;;4.43;1.70;;;;;;;20.17;84.25;102482.00;7399627;19;20014;-53
2022/07/10 04:42:42;;;;;;;7.50;1.90;;;;;;;20.40;83.31;102484.19;7400697;19;20017;-53
2022/07/10 04:45:12;;;;;;;6.43;1.70;;;;;;;20.23;82.62;102485.16;7396179;19;20545;-49
2022/07/10 04:47:40;;;;;;;7.78;1.83;;;;;;;20.23;83.01;102481.63;7398323;19;20086;-52
2022/07/10 04:50:11;;;;;;;6.82;1.90;;;;;;;20.09;83.44;102474.47;7399913;19;20014;-56
2022/07/10 04:52:40;;;;;;;5.90;1.80;;;;;;;20.17;83.29;102480.22;7401931;19;20021;-52
2022/07/10 04:55:12;;;;;;;7.63;2.13;;;;;;;20.28;82.66;102478.72;7397966;19;20345;-52
2022/07/10 04:57:44;;;;;;;4.60;1.57;;;;;;;20.34;82.56;102478.34;7398044;19;20018;-54
2022/07/10 05:00:14;;;;;;;5.43;1.90;;;;;;;20.36;81.12;102481.75;7399469;19;20235;-54
2022/07/10 05:02:43;;;;;;;8.88;2.35;;;;;;;19.70;86.27;102489.06;7399787;19;20015;-56
2022/07/10 05:05:12;;;;;;;6.13;1.75;;;;;;;19.87;85.31;102478.38;7398315;19;20034;-53
2022/07/10 05:07:40;;;;;;;7.35;1.88;;;;;;;20.05;84.20;102476.44;7399279;19;20483;-54
2022/07/10 05:10:12;;;;;;;8.68;2.00;;;;;;;20.06;85.37;102482.63;7401251;19;20029;-54
2022/07/10 05:12:41;;;;;;;10.10;2.55;;;;;;;19.99;83.61;102482.13;7399125;19;20480;-52
2022/07/10 05:15:11;;;;;;;6.03;1.92;;;;;;;20.08;83.31;102482.56;7397654;19;20483;-54
2022/07/10 05:17:40;;;;;;;3.83;1.60;;;;;;;20.37;82.90;102488.81;7395746;19;20011;-55
2022/07/10 05:20:10;;;;;;;5.07;1.80;;;;;;;20.40;81.13;102492.16;7398014;19;20479;-49
2022/07/10 05:22:39;;;;;;;4.78;2.10;;;;;;;19.86;85.80;102481.13;7399660;19;20108;-52
2022/07/10 05:25:08;;;;;;;7.95;2.10;;;;;;;19.54;86.77;102489.06;7397097;19;20025;-51
2022/07/10 05:27:40;;;;;;;8.27;2.72;;;;;;;19.69;88.09;102482.91;7398119;19;20006;-52
2022/07/10 05:30:10;;;;;;;5.28;1.98;;;;;;;19.41;90.33;102485.38;7396059;19;20021;-53
2022/07/10 05:32:45;;;;;;;6.38;1.98;;;;;;;20.02;86.91;102495.25;7398010;19;20015;-51
2022/07/10 05:35:14;;;;;;;6.95;1.75;;;;;;;20.14;85.52;102487.50;7397306;19;20042;-51
2022/07/10 05:37:43;;;;;;;6.00;1.95;;;;;;;20.38;84.13;102485.22;7396941;19;20107;-52
2022/07/10 05:40:13;;;;;;;5.35;1.60;;;;;;;20.56;83.36;102486.78;7395182;19;20006;-53
2022/07/10 05:42:44;;;;;;;5.78;2.08;;;;;;;20.49;83.46;102487.22;7397159;19;20022;-50
2022/07/10 05:45:13;;;;;;;5.93;2.08;;;;;;;20.53;82.13;102483.41;7397093;19;20026;-61
2022/07/10 05:47:42;;;;;;;6.85;1.95;;;;;;;20.43;83.27;102499.13;7397895;19;20022;-54
2022/07/10 05:50:12;;;;;;;6.97;1.77;;;;;;;20.54;82.53;102493.13;7396493;19;20014;-54
2022/07/10 05:52:41;;;;;;;7.95;1.85;;;;;;;20.66;81.72;102492.41;7398006;19;20022;-53
2022/07/10 05:55:10;;;;;;;6.60;2.20;;;;;;;20.28;84.49;102494.69;7396435;19;20031;-55
2022/07/10 05:57:39;;;;;;;14.05;2.53;;;;;;;20.25;85.42;102490.41;7396144;19;20019;-54
2022/07/10 06:00:12;;;;;;;8.45;2.10;;;;;;;19.92;88.27;102491.41;7397036;19;20021;-54
2022/07/10 06:02:41;;;;;;;7.72;1.88;;;;;;;19.92;90.08;102490.56;7400233;19;20735;-56
2022/07/10 06:05:11;;;;;;;8.52;2.20;;;;;;;20.19;87.50;102494.28;7396189;19;20022;-55
2022/07/10 06:07:40;;;;;;;6.53;2.35;;;;;;;20.12;88.71;102495.59;7397261;19;20018;-52
2022/07/10 06:10:10;;;;;;;9.07;2.13;;;;;;;20.49;85.78;102498.75;7396269;19;20021;-51
2022/07/10 06:12:39;;;;;;;6.78;2.05;;;;;;;20.58;84.73;102497.34;7396791;19;20406;-55
2022/07/10 06:15:12;;;;;;;7.10;1.88;;;;;;;20.33;88.08;102505.91;7396218;19;20467;-56
2022/07/10 06:17:41;;;;;;;8.57;1.83;;;;;;;20.23;90.66;102503.81;7396763;19;20011;-54
2022/07/10 06:20:12;;;;;;;6.53;2.00;;;;;;;20.16;94.80;102502.44;7396953;19;20018;-57
2022/07/10 06:22:40;;;;;;;9.55;2.20;;;;;;;20.19;96.61;102498.75;7397083;19;20025;-51
2022/07/10 06:25:11;;;;;;;8.15;2.45;;;;;;;20.28;95.33;102506.19;7396395;19;20019;-53
2022/07/10 06:27:40;;;;;;;7.20;2.25;;;;;;;20.02;98.74;102497.91;7396913;19;20017;-55
2022/07/10 06:30:13;;;;;;;12.40;2.83;;;;;;;19.25;100.00;102503.97;7397625;19;20019;-55
2022/07/10 06:32:44;;;;;;;9.30;2.75;;;;;;;19.47;100.00;102512.50;7398133;19;20052;-55
2022/07/10 06:35:13;;;;;;;13.27;3.40;;;;;;;19.77;100.00;102511.75;7396964;19;20026;-52
2022/07/10 06:37:42;;;;;;;8.50;2.33;;;;;;;20.10;100.00;102512.56;7397728;19;20020;-50
2022/07/10 06:40:15;;;;;;;9.23;2.60;;;;;;;20.22;100.00;102517.19;7394393;19;20018;-56
2022/07/10 06:42:44;;;;;;;12.02;3.00;;;;;;;19.65;100.00;102513.25;7397614;19;20021;-53
2022/07/10 06:45:16;;;;;;;10.43;2.95;;;;;;;19.66;100.00;102506.16;7393889;19;20021;-52
2022/07/10 06:48:00;;;;;;;7.70;2.92;;;;;;;19.39;100.00;102501.44;7396564;19;20025;-55
2022/07/10 06:50:34;;;;;;;13.95;3.13;;;;;;;19.63;100.00;102511.63;7395925;19;20019;-51
2022/07/10 06:53:04;;;;;;;8.43;3.30;;;;;;;19.65;100.00;102509.75;7396842;19;20360;-56
2022/07/10 06:55:33;;;;;;;13.10;3.50;;;;;;;19.68;100.00;102520.22;7397218;19;20014;-51
2022/07/10 06:58:02;;;;;;;8.98;3.40;;;;;;;19.86;100.00;102508.59;7397609;19;20010;-53
2022/07/10 07:00:34;;;;;;;9.05;3.17;;;;;;;19.93;100.00;102514.41;7395356;19;20021;-58
2022/07/10 07:03:03;;;;;;;10.43;3.30;;;;;;;19.85;100.00;102514.00;7397905;19;20326;-52
2022/07/10 07:05:31;;;;;;;8.70;3.15;;;;;;;19.81;100.00;102518.59;7396937;19;20022;-58
2022/07/10 07:08:00;;;;;;;10.88;4.32;;;;;;;19.38;100.00;102514.81;7399649;19;20014;-56
2022/07/10 07:10:29;;;;;;;11.05;3.85;;;;;;;19.46;100.00;102510.78;7404486;19;20019;-56
2022/07/10 07:12:59;;;;;;;7.75;3.90;;;;;;;19.51;100.00;102515.84;7410381;19;20498;-57
2022/07/10 07:15:28;;;;;;;11.00;3.83;;;;;;;19.28;100.00;102509.97;7404649;19;20328;-57
2022/07/10 07:18:07;;;;;;;8.85;3.90;;;;;;;19.13;100.00;102511.66;7407506;19;20017;-49
2022/07/10 07:23:18;;;;;;;9.50;3.45;;;;;;;19.03;100.00;102515.75;7405078;19;20011;-54
2022/07/10 07:25:48;;;;;;;8.55;4.28;;;;;;;19.22;100.00;102507.66;7403637;19;20017;-52
2022/07/10 07:28:18;;;;;;;13.00;4.18;;;;;;;19.23;100.00;102506.72;7405876;19;20011;-50
2022/07/10 07:30:48;;;;;;;10.15;3.90;;;;;;;19.42;100.00;102519.00;7409345;19;20380;-52
2022/07/10 07:33:19;;;;;;;10.35;3.78;;;;;;;19.66;100.00;102519.47;7406259;19;20010;-51
2022/07/10 07:35:48;;;;;;;10.50;4.60;;;;;;;19.77;100.00;102519.72;7401327;19;20027;-50
2022/07/10 07:38:17;;;;;;;8.95;4.20;;;;;;;19.39;100.00;102514.72;7397371;19;20006;-48
2022/07/10 07:40:46;;;;;;;13.57;4.78;;;;;;;19.14;100.00;102521.38;7402397;19;20017;-53
2022/07/10 07:43:15;;;;;;;11.15;4.18;;;;;;;19.17;100.00;102526.50;7397629;19;20007;-54
2022/07/10 07:45:44;;;;;;;11.27;4.55;;;;;;;19.27;100.00;102526.00;7396054;19;20371;-48
2022/07/10 07:48:13;;;;;;;8.32;3.97;;;;;;;19.10;100.00;102525.13;7400149;19;20021;-49
2022/07/10 07:50:44;;;;;;;9.38;4.13;;;;;;;19.21;100.00;102519.22;7400480;19;20018;-50
2022/07/10 07:53:13;;;;;;;10.73;3.83;;;;;;;19.39;100.00;102527.16;7396840;19;20357;-49
2022/07/10 07:55:42;;;;;;;6.63;3.20;;;;;;;19.72;100.00;102527.09;7397588;19;20019;-50
2022/07/10 07:58:11;;;;;;;9.80;3.63;;;;;;;19.83;100.00;102523.84;7397822;19;20015;-49
2022/07/10 08:00:40;;;;;;;11.05;3.90;;;;;;;19.68;100.00;102520.22;7397685;19;20025;-48
2022/07/10 08:03:09;;;;;;;13.00;4.00;;;;;;;19.77;100.00;102511.75;7400099;19;20455;-48
2022/07/10 08:05:37;;;;;;;14.07;4.65;;;;;;;19.44;100.00;102520.66;7398663;19;20014;-50
2022/07/10 08:08:09;;;;;;;13.77;4.25;;;;;;;19.45;100.00;102514.38;7398298;19;20014;-47
2022/07/10 08:10:39;;;;;;;10.80;4.40;;;;;;;19.04;100.00;102509.50;7397457;19;20019;-47
2022/07/10 08:13:08;;;;;;;10.18;4.50;;;;;;;19.04;100.00;102519.28;7398129;19;20562;-52
2022/07/10 08:15:37;;;;;;;7.18;3.88;;;;;;;19.32;100.00;102505.38;7395858;19;20029;-55
2022/07/10 08:18:07;;;;;;;11.65;4.32;;;;;;;19.61;100.00;102514.38;7397650;19;20356;-48
2022/07/10 08:20:36;;;;;;;9.35;4.15;;;;;;;19.93;100.00;102513.53;7399124;19;20025;-49
2022/07/10 08:23:05;;;;;;;11.07;3.95;;;;;;;20.17;100.00;102517.47;7397372;19;20436;-49
2022/07/10 08:25:36;;;;;;;9.55;4.32;;;;;;;20.26;100.00;102517.88;7396318;19;20475;-52
2022/07/10 08:28:06;;;;;;;7.68;3.92;;;;;;;20.21;100.00;102524.31;7397654;19;20031;-50
2022/07/10 08:30:35;;;;;;;9.35;3.42;;;;;;;20.15;100.00;102527.34;7396430;19;20022;-48
2022/07/10 08:33:04;;;;;;;11.23;3.75;;;;;;;20.12;100.00;102526.66;7396050;19;20476;-51
2022/07/10 08:35:33;;;;;;;9.43;3.70;;;;;;;19.90;100.00;102517.22;7399153;19;20011;-49
2022/07/10 08:38:01;;;;;;;13.73;4.00;;;;;;;19.54;100.00;102521.84;7398777;19;20022;-48
2022/07/10 08:40:39;;;;;;;8.68;4.22;;;;;;;19.99;100.00;102521.19;7396988;19;20018;-51
2022/07/10 08:43:08;;;;;;;12.15;4.07;;;;;;;20.03;100.00;102520.94;7397212;19;20541;-52
2022/07/10 08:45:37;;;;;;;9.60;3.58;;;;;;;20.24;100.00;102520.63;7395356;19;20017;-49
2022/07/10 08:48:09;;;;;;;13.77;4.18;;;;;;;20.46;100.00;102525.56;7396731;19;20498;-52
2022/07/10 08:50:44;;;;;;;8.15;3.85;;;;;;;20.47;100.00;102521.94;7395983;19;20096;-52
2022/07/10 08:53:19;;;;;;;10.73;3.72;;;;;;;20.23;100.00;102522.44;7399715;19;20011;-49
2022/07/10 08:55:51;;;;;;;11.45;3.88;;;;;;;20.00;100.00;102513.13;7395133;19;20026;-53
2022/07/10 08:58:22;;;;;;;10.43;3.70;;;;;;;20.35;100.00;102517.34;7395295;19;20778;-54
2022/07/10 09:00:51;;;;;;;10.70;3.67;;;;;;;20.17;100.00;102512.16;7396695;19;20103;-50
2022/07/10 09:03:20;;;;;;;10.80;3.72;;;;;;;20.47;100.00;102511.28;7396748;19;20011;-48
2022/07/10 09:05:51;;;;;;;7.95;3.30;;;;;;;20.54;100.00;102501.97;7393396;19;20026;-51
2022/07/10 09:08:27;;;;;;;11.13;3.47;;;;;;;21.02;100.00;102501.78;7393047;19;20015;-50
2022/07/10 09:11:15;;;;;;;9.35;2.85;;;;;;;21.06;100.00;102505.09;7398618;19;20056;-53
2022/07/10 09:13:54;;;;;;;7.50;3.10;;;;;;;20.90;100.00;102511.41;7395298;19;20478;-51
2022/07/10 09:16:25;;;;;;;9.10;2.78;;;;;;;20.97;100.00;102500.34;7393537;19;20021;-49
2022/07/10 09:18:54;;;;;;;10.45;3.33;;;;;;;20.98;100.00;102502.94;7392226;19;20020;-50
2022/07/10 09:21:24;;;;;;;6.28;2.25;;;;;;;20.87;100.00;102495.56;7394778;19;20352;-52
2022/07/10 09:23:53;;;;;;;7.18;2.65;;;;;;;21.07;100.00;102506.84;7395328;19;20550;-54
2022/07/10 09:26:24;;;;;;;6.00;2.28;;;;;;;21.38;100.00;102495.09;7393517;19;20018;-54
2022/07/10 09:29:07;;;;;;;8.25;2.40;;;;;;;21.29;100.00;102489.47;7397348;19;20378;-51
2022/07/10 09:31:50;;;;;;;6.13;2.38;;;;;;;21.33;100.00;102488.34;7392902;19;20022;-55
2022/07/10 09:34:20;;;;;;;7.28;2.50;;;;;;;21.26;100.00;102482.53;7394594;19;20019;-54
2022/07/10 09:36:49;;;;;;;7.05;1.88;;;;;;;21.12;100.00;102485.22;7393910;19;20079;-50
2022/07/10 09:39:17;;;;;;;11.73;2.95;;;;;;;21.52;100.00;102486.25;7392054;19;20021;-50
2022/07/10 09:41:49;;;;;;;6.65;2.35;;;;;;;20.95;97.14;102492.47;7394653;19;20018;-49
2022/07/10 09:44:18;;;;;;;6.40;2.13;;;;;;;20.97;100.00;102490.53;7394303;19;20014;-55
2022/07/10 09:46:47;;;;;;;7.07;2.03;;;;;;;21.26;100.00;102480.75;7394791;19;20018;-50
2022/07/10 09:49:18;;;;;;;5.82;2.20;;;;;;;21.70;100.00;102470.84;7394079;19;20364;-51
2022/07/10 09:51:48;;;;;;;5.88;2.78;;;;;;;22.10;99.66;102472.69;7396280;19;20022;-52
2022/07/10 09:54:18;;;;;;;5.70;2.20;;;;;;;21.60;93.04;102475.91;7393633;19;20014;-53
2022/07/10 09:56:51;;;;;;;4.53;1.98;;;;;;;22.18;93.74;102467.72;7393967;19;20014;-54
2022/07/10 09:59:21;;;;;;;5.88;1.90;;;;;;;21.93;89.04;102473.81;7392535;19;20014;-51
2022/07/10 10:01:52;;;;;;;4.75;2.17;;;;;;;21.88;90.29;102471.47;7393880;19;20018;-55
2022/07/10 10:04:24;;;;;;;4.78;2.22;;;;;;;22.19;93.62;102474.72;7392713;19;20030;-55
2022/07/10 10:06:54;;;;;;;3.53;1.85;;;;;;;21.55;89.97;102470.03;7393441;19;20010;-55
2022/07/10 10:09:27;;;;;;;4.80;2.17;;;;;;;22.16;91.31;102480.28;7392456;19;20022;-53
2022/07/10 10:12:02;;;;;;;7.03;2.00;;;;;;;22.34;89.84;102475.56;7393766;19;20017;-53
2022/07/10 10:14:32;;;;;;;3.03;1.73;;;;;;;21.98;89.20;102478.84;7392865;19;20021;-52
2022/07/10 10:17:02;;;;;;;6.90;1.88;;;;;;;22.36;92.57;102470.94;7392687;19;20018;-51
2022/07/10 10:22:15;;;;;;;4.57;1.95;;;;;;;22.76;84.63;102473.53;7393848;19;20088;-53
2022/07/10 10:24:45;;;;;;;7.55;2.00;;;;;;;22.91;80.87;102470.75;7392626;19;20031;-48
2022/07/10 10:27:18;;;;;;;4.95;1.83;;;;;;;22.93;80.27;102460.81;7391863;19;20078;-49
2022/07/10 10:29:50;;;;;;;2.85;1.60;;;;;;;22.96;79.79;102460.59;7391255;19;20455;-50
2022/07/10 10:32:19;;;;;;;4.70;1.60;;;;;;;23.09;76.96;102460.59;7393055;19;20011;-47
2022/07/10 10:34:55;;;;;;;4.28;1.65;;;;;;;23.18;79.86;102459.09;7393396;19;20048;-51
2022/07/10 10:37:40;;;;;;;3.00;1.52;;;;;;;22.98;77.41;102466.69;7393131;19;20018;-54
2022/07/10 10:40:11;;;;;;;5.53;1.85;;;;;;;22.81;78.68;102460.72;7390019;19;20014;-51
2022/07/10 10:42:44;;;;;;;5.20;1.75;;;;;;;23.18;79.03;102456.41;7390496;19;20011;-46
2022/07/10 10:45:27;;;;;;;4.15;1.90;;;;;;;23.64;78.85;102447.69;7391083;19;20029;-49
2022/07/10 10:48:03;;;;;;;6.00;1.70;;;;;;;22.71;77.04;102453.44;7391450;19;20422;-51
2022/07/10 10:50:43;;;;;;;3.63;1.70;;;;;;;23.04;76.63;102470.75;7392515;19;20010;-52
2022/07/10 10:53:16;;;;;;;3.28;1.50;;;;;;;23.02;74.04;102470.00;7389708;19;20014;-53
2022/07/10 10:56:15;;;;;;;3.50;1.60;;;;;;;23.24;76.86;102464.00;7390917;19;20015;-49
2022/07/10 10:58:48;;;;;;;3.33;1.60;;;;;;;23.35;74.94;102461.41;7390073;19;20018;-53
2022/07/10 11:01:29;;;;;;;3.00;1.70;;;;;;;22.93;73.28;102466.16;7391287;19;20021;-53
2022/07/10 11:04:17;;;;;;;2.33;1.42;;;;;;;22.37;78.25;102459.31;7391308;19;20029;-52
2022/07/10 11:06:48;;;;;;;3.45;1.38;;;;;;;22.91;75.70;102457.38;7392265;19;20019;-48
2022/07/10 11:09:27;;;;;;;3.20;1.58;;;;;;;23.67;73.88;102458.19;7394877;19;20021;-50
2022/07/10 11:12:04;;;;;;;2.30;1.30;;;;;;;23.92;70.53;102448.34;7391233;19;20322;-54
2022/07/10 11:14:38;;;;;;;3.38;1.52;;;;;;;23.89;69.44;102443.25;7390996;19;20022;-51
2022/07/10 11:17:08;;;;;;;8.43;1.65;;;;;;;24.09;69.39;102445.25;7391993;19;20015;-52
2022/07/10 11:19:37;;;;;;;4.32;1.45;;;;;;;24.30;70.39;102444.56;7389818;19;20514;-51
2022/07/10 11:22:39;;;;;;;3.60;1.30;;;;;;;24.32;70.10;102445.31;7390997;19;20014;-55
2022/07/10 11:25:24;;;;;;;2.13;1.20;;;;;;;24.35;68.18;102440.56;7390708;19;20021;-50
2022/07/10 11:28:10;;;;;;;6.20;1.85;;;;;;;24.36;68.12;102438.75;7390939;19;20486;-52
2022/07/10 11:30:52;;;;;;;2.65;1.35;;;;;;;24.37;67.93;102445.78;7390878;19;20029;-51
2022/07/10 11:33:23;;;;;;;2.72;1.40;;;;;;;24.45;68.61;102442.53;7366160;19;20345;-53
2022/07/10 11:35:54;;;;;;;2.53;1.48;;;;;;;24.32;67.56;102443.47;7389131;19;20021;-47
2022/07/10 11:38:24;;;;;;;5.22;1.80;;;;;;;23.95;68.67;102445.44;7389640;19;20539;-50
2022/07/10 11:40:55;;;;;;;3.35;1.63;;;;;;;23.39;74.14;102438.81;7388667;19;20021;-51
2022/07/10 11:43:26;;;;;;;4.47;1.85;;;;;;;23.62;70.29;102439.78;7392008;19;20013;-48
2022/07/10 11:46:00;;;;;;;5.57;2.08;;;;;;;23.35;71.32;102431.13;7388658;19;20022;-50